MiSS Sarah — WDE9595 — position and weather

sailwx.info

Track history (hours):
 
Tides and Currents Weather Stations Pressure Air Temp Water Temp Dewpoint Dewpoint Depression Visibility Wind Speed Wind Dir Waves Ship Positions

MiSS Sarah

Owner: Higman Barge Lines, Inc, Orange, TX. More information available from US FCC via Universal Licensing System and Coast Guard Vessel Documentation Center.

Last reported at 2017-Apr-25 13:19 UTC. Time now 2017-Apr-27 05:11 UTC.
Position N 30°05' W 093°44'.

Length 24 m; draft 9 m.

Type: Towing. MMSI: 367419040.

Date/timePositionNaut miles runAvg speedWind from/ knotsBaromVisibWave heightAir tempDewpointWater temp
2017-Apr-25 13:19N 30°05' W 093°44'0 0.0
2017-Apr-25 12:49N 30°05' W 093°44'0 0.0
2017-Apr-25 12:25N 30°05' W 093°44'0 0.0
2017-Apr-25 10:59N 30°05' W 093°44'0 0.0
2017-Apr-25 09:57N 30°05' W 093°44'0 0.0
2017-Apr-25 08:30N 30°05' W 093°44'0 0.0
2017-Apr-25 07:50N 30°05' W 093°44'0 0.0
2017-Apr-25 07:29N 30°05' W 093°44'0 0.0
2017-Apr-25 07:00N 30°05' W 093°44'0 0.0
2017-Apr-25 06:30N 30°05' W 093°44'0 0.0
2017-Apr-25 06:00N 30°05' W 093°44'0 0.0
2017-Apr-25 05:30N 30°05' W 093°44'0 0.0
2017-Apr-25 05:00N 30°05' W 093°44'0 0.0
2017-Apr-25 04:30N 30°05' W 093°44'0 0.0
2017-Apr-25 04:00N 30°05' W 093°44'0 0.0
2017-Apr-25 03:26N 30°05' W 093°44'0 0.0
2017-Apr-25 02:58N 30°05' W 093°44'2 0.2
2017-Apr-24 15:29N 30°03' W 093°43'3 7.0
2017-Apr-24 15:00N 30°04' W 093°39'3 6.9
2017-Apr-24 14:30N 30°04' W 093°35'6 6.4
2017-Apr-24 13:30N 30°04' W 093°27'3 6.5
2017-Apr-24 13:00N 30°04' W 093°24'3 6.7
2017-Apr-24 12:30N 30°05' W 093°20'2 4.5
2017-Apr-24 12:00N 30°05' W 093°18'2 4.2
2017-Apr-24 11:30N 30°04' W 093°16'3 5.9
2017-Apr-24 11:00N 30°01' W 093°14'3 6.2
2017-Apr-24 10:30N 29°59' W 093°12'3 6.4
2017-Apr-24 10:00N 29°56' W 093°10'3 6.6
2017-Apr-24 09:30N 29°56' W 093°06'28 6.2
2017-Apr-24 05:02N 29°55' W 092°34'2 6.1
2017-Apr-24 04:43N 29°54' W 092°31'1 6.0
2017-Apr-24 04:30N 29°54' W 092°30'3 6.1
2017-Apr-24 04:00N 29°53' W 092°27'3 6.2
2017-Apr-24 03:30N 29°53' W 092°23'3 5.9
2017-Apr-24 03:00N 29°51' W 092°21'3 5.9
2017-Apr-24 02:30N 29°50' W 092°18'3 6.1
2017-Apr-24 02:00N 29°48' W 092°15'3 5.7
2017-Apr-24 01:30N 29°47' W 092°12'2 4.0
2017-Apr-24 01:00N 29°47' W 092°09'3 6.1
2017-Apr-24 00:30N 29°48' W 092°06'3 6.2
2017-Apr-24 00:00N 29°49' W 092°03'3 6.4
2017-Apr-23 23:30N 29°50' W 091°59'3 6.7
2017-Apr-23 22:59N 29°51' W 091°55'51 6.4
2017-Apr-23 14:54N 29°36' W 090°58'3 6.1
2017-Apr-23 14:27N 29°34' W 090°56'6 6.2
2017-Apr-23 13:30N 29°32' W 090°50'3 6.2
2017-Apr-23 13:00N 29°32' W 090°46'3 5.6
2017-Apr-23 12:30N 29°34' W 090°44'3 5.5
2017-Apr-23 12:00N 29°36' W 090°43'3 5.7
2017-Apr-23 11:30N 29°36' W 090°39'3 6.1
2017-Apr-23 11:00N 29°35' W 090°36'3 6.0
2017-Apr-23 10:30N 29°34' W 090°33'3 5.6
2017-Apr-23 10:00N 29°34' W 090°30'3 0.1
2017-Apr-22 11:18N 29°33' W 090°26'2 6.9
2017-Apr-22 11:00N 29°33' W 090°28'3 6.7
2017-Apr-22 10:30N 29°34' W 090°32'3 6.6
2017-Apr-22 10:00N 29°35' W 090°36'3 6.4
2017-Apr-22 09:30N 29°36' W 090°39'3 5.7
2017-Apr-22 09:00N 29°37' W 090°42'3 5.0
2017-Apr-22 08:30N 29°34' W 090°43'3 5.1
2017-Apr-22 08:00N 29°33' W 090°45'3 6.7
2017-Apr-22 07:30N 29°32' W 090°49'4 7.2
2017-Apr-22 07:00N 29°33' W 090°53'3 6.7
2017-Apr-22 06:30N 29°34' W 090°57'50 5.0
2017-Apr-21 20:28N 29°51' W 091°51'3 6.0
2017-Apr-21 20:00N 29°51' W 091°54'3 6.4
2017-Apr-21 19:30N 29°50' W 091°58'3 6.5
2017-Apr-21 19:00N 29°49' W 092°02'3 6.7
2017-Apr-21 18:30N 29°48' W 092°05'3 6.8
2017-Apr-21 18:00N 29°47' W 092°09'3 6.0
2017-Apr-21 17:30N 29°47' W 092°12'2 3.4
2017-Apr-21 17:00N 29°48' W 092°14'3 6.5
2017-Apr-21 16:30N 29°49' W 092°18'3 6.2
2017-Apr-21 16:00N 29°51' W 092°21'3 6.3
2017-Apr-21 15:30N 29°53' W 092°23'3 6.8
2017-Apr-21 15:00N 29°54' W 092°27'30 6.3
2017-Apr-21 10:19N 29°56' W 093°01'2 6.3
2017-Apr-21 10:00N 29°56' W 093°04'3 6.3
2017-Apr-21 09:30N 29°56' W 093°07'3 5.8
2017-Apr-21 09:00N 29°57' W 093°10'3 6.4
2017-Apr-21 08:30N 29°59' W 093°13'3 5.6
2017-Apr-21 08:00N 30°02' W 093°15'3 5.5
2017-Apr-21 07:30N 30°04' W 093°16'2 3.7
2017-Apr-21 07:00N 30°05' W 093°18'1 2.9
2017-Apr-21 06:30N 30°06' W 093°19'3 5.1
2017-Apr-21 06:00N 30°04' W 093°21'3 6.2
2017-Apr-21 05:30N 30°04' W 093°25'3 6.8
2017-Apr-21 05:00N 30°04' W 093°29'4 6.9
2017-Apr-21 04:29N 30°04' W 093°33'9 3.0
2017-Apr-21 01:36N 30°04' W 093°43'1 5.0
2017-Apr-21 01:25N 30°03' W 093°43'2 6.0
2017-Apr-21 01:00N 30°04' W 093°40'3 6.2
2017-Apr-21 00:30N 30°04' W 093°37'3 6.2
2017-Apr-21 00:00N 30°04' W 093°33'3 6.3
2017-Apr-20 23:30N 30°04' W 093°29'3 6.0
2017-Apr-20 23:00N 30°04' W 093°26'3 6.2
2017-Apr-20 22:30N 30°04' W 093°22'3 5.2
2017-Apr-20 22:00N 30°05' W 093°20'3 5.5
2017-Apr-20 21:30N 30°08' W 093°20'3 5.4
2017-Apr-20 21:00N 30°10' W 093°19'3 5.6
2017-Apr-20 20:30N 30°12' W 093°17'1 2.6
2017-Apr-20 20:01N 30°13' W 093°16'0 0.1
2017-Apr-20 19:30N 30°13' W 093°16'0 0.0
2017-Apr-20 19:00N 30°13' W 093°16'0 0.0
2017-Apr-20 18:30N 30°13' W 093°16'0 0.0
2017-Apr-20 18:00N 30°13' W 093°16'0 0.0
2017-Apr-20 17:30N 30°13' W 093°16'0 0.0
2017-Apr-20 17:00N 30°13' W 093°16'0 0.0
2017-Apr-20 16:30N 30°13' W 093°16'0 0.0
2017-Apr-20 16:00N 30°13' W 093°16'0 0.0
2017-Apr-20 15:30N 30°13' W 093°16'0 0.0
2017-Apr-20 15:00N 30°13' W 093°16'0 0.0
2017-Apr-20 14:30N 30°13' W 093°16'0 0.0
2017-Apr-20 13:30N 30°13' W 093°16'0 0.0
2017-Apr-20 13:00N 30°13' W 093°16'0 0.0
2017-Apr-20 12:30N 30°13' W 093°16'0 0.0
2017-Apr-20 12:00N 30°13' W 093°16'0 0.0
2017-Apr-20 11:30N 30°13' W 093°16'0 0.0
2017-Apr-20 11:00N 30°13' W 093°16'0 0.0
2017-Apr-20 10:30N 30°13' W 093°16'0 0.0
2017-Apr-20 10:00N 30°13' W 093°16'0 0.0
2017-Apr-20 09:30N 30°13' W 093°16'0 0.0
2017-Apr-20 09:00N 30°13' W 093°16'0 0.0
2017-Apr-20 08:30N 30°13' W 093°16'0 0.0
2017-Apr-20 08:00N 30°13' W 093°16'0 0.0
2017-Apr-20 07:30N 30°13' W 093°16'0 0.0
2017-Apr-20 07:00N 30°13' W 093°16'0 0.0
2017-Apr-20 06:30N 30°13' W 093°16'0 0.0
2017-Apr-20 06:00N 30°13' W 093°16'0 0.0
2017-Apr-20 05:30N 30°13' W 093°16'0 0.0
2017-Apr-20 05:00N 30°13' W 093°16'0 0.0
2017-Apr-20 04:30N 30°13' W 093°16'0 0.0
2017-Apr-20 04:00N 30°13' W 093°16'0 0.0
2017-Apr-20 03:30N 30°13' W 093°16'0 0.0
2017-Apr-20 03:00N 30°13' W 093°16'0 0.0
2017-Apr-20 02:30N 30°13' W 093°16'0 0.0
2017-Apr-20 02:00N 30°13' W 093°16'0 0.0
2017-Apr-20 01:30N 30°13' W 093°16'0 0.0
2017-Apr-20 01:00N 30°13' W 093°16'0 0.0
2017-Apr-20 00:30N 30°13' W 093°16'0 0.0
2017-Apr-20 00:00N 30°13' W 093°16'0 0.0
2017-Apr-19 23:30N 30°13' W 093°16'0 0.0
2017-Apr-19 23:00N 30°13' W 093°16'0 0.0
2017-Apr-19 22:30N 30°13' W 093°16'0 0.1
2017-Apr-19 22:00N 30°13' W 093°16'0 0.0
2017-Apr-19 21:30N 30°13' W 093°16'0 0.0
2017-Apr-19 21:00N 30°13' W 093°16'0 0.1
2017-Apr-19 20:30N 30°13' W 093°16'0 0.0
2017-Apr-19 20:00N 30°13' W 093°16'0 0.0
2017-Apr-19 19:30N 30°13' W 093°16'0 0.0
2017-Apr-19 19:00N 30°13' W 093°16'1 1.0
2017-Apr-19 18:30N 30°14' W 093°16'0 0.5
2017-Apr-19 18:01N 30°14' W 093°15'0 0.0
2017-Apr-19 17:30N 30°14' W 093°15'0 0.0
2017-Apr-19 17:00N 30°14' W 093°15'0 0.0
2017-Apr-19 16:30N 30°14' W 093°15'0 0.0
2017-Apr-19 16:00N 30°14' W 093°15'0 0.0
2017-Apr-19 15:30N 30°14' W 093°15'0 0.0
2017-Apr-19 15:00N 30°14' W 093°15'0 0.0
2017-Apr-19 14:30N 30°14' W 093°15'0 0.0
2017-Apr-19 13:30N 30°14' W 093°15'0 0.0
2017-Apr-19 13:00N 30°14' W 093°15'0 0.0
2017-Apr-19 12:30N 30°14' W 093°15'0 0.0
2017-Apr-19 12:00N 30°14' W 093°15'0 0.0
2017-Apr-19 11:30N 30°14' W 093°15'0 0.0
2017-Apr-19 11:00N 30°14' W 093°15'0 0.0
2017-Apr-19 10:30N 30°14' W 093°15'0 0.0
2017-Apr-19 10:00N 30°14' W 093°15'0 0.0
2017-Apr-19 09:30N 30°14' W 093°15'0 0.0
2017-Apr-19 09:00N 30°14' W 093°15'0 0.0
2017-Apr-19 08:30N 30°14' W 093°15'0 0.0
2017-Apr-19 08:00N 30°14' W 093°15'0 0.0
2017-Apr-19 07:30N 30°14' W 093°15'0 0.0
2017-Apr-19 07:00N 30°14' W 093°15'0 0.0
2017-Apr-19 06:30N 30°14' W 093°15'0 0.0
2017-Apr-19 06:00N 30°14' W 093°15'0 0.0
2017-Apr-19 05:30N 30°14' W 093°15'0 0.0
2017-Apr-19 05:00N 30°14' W 093°15'0 0.0
2017-Apr-19 04:30N 30°14' W 093°15'0 0.0
2017-Apr-19 04:00N 30°14' W 093°15'0 0.0
2017-Apr-19 03:30N 30°14' W 093°15'0 0.0
2017-Apr-19 03:00N 30°14' W 093°15'0 0.0
2017-Apr-19 02:30N 30°14' W 093°15'0 0.0
2017-Apr-19 02:00N 30°14' W 093°15'0 0.0
2017-Apr-19 01:30N 30°14' W 093°15'0 0.0
2017-Apr-19 01:00N 30°14' W 093°15'0 0.0
2017-Apr-19 00:30N 30°14' W 093°15'0 0.0
2017-Apr-19 00:00N 30°14' W 093°15'0 0.0
2017-Apr-18 23:30N 30°14' W 093°15'0 0.0
2017-Apr-18 23:00N 30°14' W 093°15'0 0.0
2017-Apr-18 22:30N 30°14' W 093°15'0 0.0
2017-Apr-18 22:00N 30°14' W 093°15'0 0.0
2017-Apr-18 21:30N 30°14' W 093°15'0 0.0
2017-Apr-18 21:00N 30°14' W 093°15'0 0.0
2017-Apr-18 20:30N 30°14' W 093°15'0 0.0
2017-Apr-18 20:00N 30°14' W 093°15'0 0.0
2017-Apr-18 19:30N 30°14' W 093°15'0 0.0
2017-Apr-18 19:00N 30°14' W 093°15'0 0.0
2017-Apr-18 18:30N 30°14' W 093°15'0 0.0
2017-Apr-18 18:00N 30°14' W 093°15'0 0.0
2017-Apr-18 17:30N 30°14' W 093°15'0 0.0
2017-Apr-18 17:00N 30°14' W 093°15'0 0.0
2017-Apr-18 16:30N 30°14' W 093°15'0 0.2
2017-Apr-18 16:00N 30°14' W 093°15'1 1.2
2017-Apr-18 15:30N 30°13' W 093°16'0 0.0
2017-Apr-18 15:00N 30°13' W 093°16'0 0.0
2017-Apr-18 14:30N 30°13' W 093°16'0 0.0
2017-Apr-18 13:30N 30°13' W 093°16'0 0.0
2017-Apr-18 13:00N 30°13' W 093°16'0 0.0
2017-Apr-18 12:30N 30°13' W 093°16'0 0.0
2017-Apr-18 12:00N 30°13' W 093°16'0 0.0
2017-Apr-18 11:30N 30°13' W 093°16'0 0.0
2017-Apr-18 11:00N 30°13' W 093°16'0 0.0
2017-Apr-18 10:30N 30°13' W 093°16'0 0.0
2017-Apr-18 10:00N 30°13' W 093°16'0 0.0
2017-Apr-18 09:30N 30°13' W 093°16'0 0.0
2017-Apr-18 09:00N 30°13' W 093°16'0 0.0
2017-Apr-18 08:30N 30°13' W 093°16'0 0.0
2017-Apr-18 08:00N 30°13' W 093°16'0 0.0
2017-Apr-18 07:30N 30°13' W 093°16'0 0.0
2017-Apr-18 07:00N 30°13' W 093°16'0 0.0
2017-Apr-18 06:30N 30°13' W 093°16'0 0.0
2017-Apr-18 04:29N 30°13' W 093°16'0 0.0
2017-Apr-18 04:00N 30°13' W 093°16'0 0.0
2017-Apr-18 03:30N 30°13' W 093°16'0 0.0
2017-Apr-18 03:00N 30°13' W 093°16'0 0.0
2017-Apr-18 02:30N 30°13' W 093°16'0 0.0
2017-Apr-18 02:00N 30°13' W 093°16'0 0.0
2017-Apr-18 01:30N 30°13' W 093°16'0 0.0
2017-Apr-18 01:00N 30°13' W 093°16'0 0.0
2017-Apr-18 00:30N 30°13' W 093°16'0 0.0
2017-Apr-18 00:00N 30°13' W 093°16'0 0.0
2017-Apr-17 23:30N 30°13' W 093°16'0 0.0
2017-Apr-17 23:00N 30°13' W 093°16'0 0.0
2017-Apr-17 22:30N 30°13' W 093°16'0 0.0
2017-Apr-17 22:00N 30°13' W 093°16'0 0.0
2017-Apr-17 21:30N 30°13' W 093°16'0 0.0
2017-Apr-17 21:00N 30°13' W 093°16'0 0.2
2017-Apr-17 20:30N 30°13' W 093°16'0 0.1
2017-Apr-17 20:00N 30°14' W 093°16'0 0.0
2017-Apr-17 19:30N 30°14' W 093°16'0 0.0
2017-Apr-17 19:00N 30°14' W 093°16'0 0.0
2017-Apr-17 18:30N 30°14' W 093°16'0 0.0
2017-Apr-17 18:00N 30°14' W 093°16'0 0.0
2017-Apr-17 17:30N 30°14' W 093°16'0 0.0
2017-Apr-17 17:00N 30°14' W 093°16'0 0.0
2017-Apr-17 16:30N 30°14' W 093°16'0 0.0
2017-Apr-17 16:00N 30°14' W 093°16'0 0.0
2017-Apr-17 15:30N 30°14' W 093°16'0 0.0
2017-Apr-17 15:00N 30°13' W 093°16'0 0.0
2017-Apr-17 14:00N 30°14' W 093°16'0 0.0
2017-Apr-17 13:30N 30°14' W 093°16'0 0.0
2017-Apr-17 13:00N 30°14' W 093°16'0 0.0
2017-Apr-17 12:30N 30°14' W 093°16'0 0.0
2017-Apr-17 12:00N 30°14' W 093°16'0 0.0
2017-Apr-17 11:30N 30°14' W 093°16'0 0.0
2017-Apr-17 11:00N 30°13' W 093°16'0 0.0
2017-Apr-17 10:30N 30°13' W 093°16'0 0.0
2017-Apr-17 10:00N 30°13' W 093°16'0 0.0
2017-Apr-17 09:30N 30°13' W 093°16'0 0.0
2017-Apr-17 09:00N 30°13' W 093°16'0 0.0
2017-Apr-17 08:30N 30°13' W 093°16'0 0.0
2017-Apr-17 08:00N 30°13' W 093°16'0 0.0
2017-Apr-17 07:30N 30°13' W 093°16'0 0.0
2017-Apr-17 07:00N 30°13' W 093°16'0 0.0
2017-Apr-17 06:30N 30°14' W 093°16'0 0.0
2017-Apr-17 06:00N 30°14' W 093°16'0 0.0
2017-Apr-17 05:30N 30°14' W 093°16'0 0.0
2017-Apr-17 05:00N 30°14' W 093°16'0 0.0
2017-Apr-17 04:30N 30°14' W 093°16'0 0.0
2017-Apr-17 04:00N 30°14' W 093°16'0 0.0
2017-Apr-17 03:30N 30°14' W 093°16'0 0.0
2017-Apr-17 03:00N 30°14' W 093°16'0 0.0
2017-Apr-17 02:30N 30°14' W 093°16'0 0.0
2017-Apr-17 02:00N 30°14' W 093°16'0 0.0
2017-Apr-17 01:30N 30°14' W 093°16'0 0.0
2017-Apr-17 01:00N 30°14' W 093°16'0 0.0
2017-Apr-17 00:30N 30°14' W 093°16'0 0.0
2017-Apr-17 00:00N 30°14' W 093°16'0 0.0
2017-Apr-16 23:30N 30°14' W 093°16'0 0.0
2017-Apr-16 23:00N 30°14' W 093°16'0 0.0
2017-Apr-16 22:30N 30°14' W 093°16'0 0.0
2017-Apr-16 22:00N 30°14' W 093°16'0 0.0
2017-Apr-16 21:30N 30°14' W 093°16'0 0.0
2017-Apr-16 21:00N 30°14' W 093°16'0 0.0
2017-Apr-16 20:30N 30°14' W 093°16'0 0.0
2017-Apr-16 20:00N 30°14' W 093°16'0 0.0
2017-Apr-16 19:30N 30°14' W 093°16'0 0.0
2017-Apr-16 19:00N 30°14' W 093°16'0 0.0
2017-Apr-16 18:30N 30°14' W 093°16'0 0.0
2017-Apr-16 18:00N 30°14' W 093°16'0 0.0
2017-Apr-16 17:30N 30°14' W 093°16'0 0.0
2017-Apr-16 17:00N 30°14' W 093°16'0 0.0
2017-Apr-16 16:30N 30°14' W 093°16'0 0.0
2017-Apr-16 16:00N 30°14' W 093°16'0 0.0
2017-Apr-16 15:30N 30°14' W 093°16'0 0.0
2017-Apr-16 15:00N 30°14' W 093°16'0 0.0
2017-Apr-16 14:00N 30°14' W 093°16'0 0.0
2017-Apr-16 13:30N 30°13' W 093°16'0 0.0
2017-Apr-16 13:00N 30°14' W 093°16'0 0.0
2017-Apr-16 12:30N 30°14' W 093°16'0 0.0
2017-Apr-16 12:00N 30°13' W 093°16'0 0.5
2017-Apr-16 11:30N 30°13' W 093°16'0 0.6
2017-Apr-16 11:00N 30°13' W 093°16'0 0.5
2017-Apr-16 10:30N 30°13' W 093°16'1 2.9
2017-Apr-16 10:00N 30°12' W 093°17'3 5.1
2017-Apr-16 09:30N 30°10' W 093°19'2 4.7
2017-Apr-16 09:00N 30°08' W 093°20'2 5.0
2017-Apr-16 08:30N 30°06' W 093°20'2 4.0
2017-Apr-16 08:00N 30°04' W 093°21'2 3.3
2017-Apr-16 07:30N 30°04' W 093°23'3 5.2
2017-Apr-16 07:00N 30°04' W 093°26'3 5.2
2017-Apr-16 06:30N 30°04' W 093°29'3 5.1
2017-Apr-16 06:00N 30°04' W 093°32'  
Track history (hours):
 
Tides and Currents Weather Stations Pressure Air Temp Water Temp Dewpoint Dewpoint Depression Visibility Wind Speed Wind Dir Waves Ship Positions

MiSS Sarah

Owner: Higman Barge Lines, Inc, Orange, TX. More information available from US FCC via Universal Licensing System and Coast Guard Vessel Documentation Center.

Last reported at 2017-Apr-25 13:19 UTC. Time now 2017-Apr-27 05:11 UTC.
Position N 30°05' W 093°44'.

Length 24 m; draft 9 m.

Type: Towing. MMSI: 367419040.

Date/timePositionNaut miles runAvg speedWind from/ knotsBaromVisibWave heightAir tempDewpointWater temp
2017-Apr-25 13:19N 30°05' W 093°44'0 0.0
2017-Apr-25 12:49N 30°05' W 093°44'0 0.0
2017-Apr-25 12:25N 30°05' W 093°44'0 0.0
2017-Apr-25 10:59N 30°05' W 093°44'0 0.0
2017-Apr-25 09:57N 30°05' W 093°44'0 0.0
2017-Apr-25 08:30N 30°05' W 093°44'0 0.0
2017-Apr-25 07:50N 30°05' W 093°44'0 0.0
2017-Apr-25 07:29N 30°05' W 093°44'0 0.0
2017-Apr-25 07:00N 30°05' W 093°44'0 0.0
2017-Apr-25 06:30N 30°05' W 093°44'0 0.0
2017-Apr-25 06:00N 30°05' W 093°44'0 0.0
2017-Apr-25 05:30N 30°05' W 093°44'0 0.0
2017-Apr-25 05:00N 30°05' W 093°44'0 0.0
2017-Apr-25 04:30N 30°05' W 093°44'0 0.0
2017-Apr-25 04:00N 30°05' W 093°44'0 0.0
2017-Apr-25 03:26N 30°05' W 093°44'0 0.0
2017-Apr-25 02:58N 30°05' W 093°44'2 0.2
2017-Apr-24 15:29N 30°03' W 093°43'3 7.0
2017-Apr-24 15:00N 30°04' W 093°39'3 6.9
2017-Apr-24 14:30N 30°04' W 093°35'6 6.4
2017-Apr-24 13:30N 30°04' W 093°27'3 6.5
2017-Apr-24 13:00N 30°04' W 093°24'3 6.7
2017-Apr-24 12:30N 30°05' W 093°20'2 4.5
2017-Apr-24 12:00N 30°05' W 093°18'2 4.2
2017-Apr-24 11:30N 30°04' W 093°16'3 5.9
2017-Apr-24 11:00N 30°01' W 093°14'3 6.2
2017-Apr-24 10:30N 29°59' W 093°12'3 6.4
2017-Apr-24 10:00N 29°56' W 093°10'3 6.6
2017-Apr-24 09:30N 29°56' W 093°06'28 6.2
2017-Apr-24 05:02N 29°55' W 092°34'2 6.1
2017-Apr-24 04:43N 29°54' W 092°31'1 6.0
2017-Apr-24 04:30N 29°54' W 092°30'3 6.1
2017-Apr-24 04:00N 29°53' W 092°27'3 6.2
2017-Apr-24 03:30N 29°53' W 092°23'3 5.9
2017-Apr-24 03:00N 29°51' W 092°21'3 5.9
2017-Apr-24 02:30N 29°50' W 092°18'3 6.1
2017-Apr-24 02:00N 29°48' W 092°15'3 5.7
2017-Apr-24 01:30N 29°47' W 092°12'2 4.0
2017-Apr-24 01:00N 29°47' W 092°09'3 6.1
2017-Apr-24 00:30N 29°48' W 092°06'3 6.2
2017-Apr-24 00:00N 29°49' W 092°03'3 6.4
2017-Apr-23 23:30N 29°50' W 091°59'3 6.7
2017-Apr-23 22:59N 29°51' W 091°55'51 6.4
2017-Apr-23 14:54N 29°36' W 090°58'3 6.1
2017-Apr-23 14:27N 29°34' W 090°56'6 6.2
2017-Apr-23 13:30N 29°32' W 090°50'3 6.2
2017-Apr-23 13:00N 29°32' W 090°46'3 5.6
2017-Apr-23 12:30N 29°34' W 090°44'3 5.5
2017-Apr-23 12:00N 29°36' W 090°43'3 5.7
2017-Apr-23 11:30N 29°36' W 090°39'3 6.1
2017-Apr-23 11:00N 29°35' W 090°36'3 6.0
2017-Apr-23 10:30N 29°34' W 090°33'3 5.6
2017-Apr-23 10:00N 29°34' W 090°30'3 0.1
2017-Apr-22 11:18N 29°33' W 090°26'2 6.9
2017-Apr-22 11:00N 29°33' W 090°28'3 6.7
2017-Apr-22 10:30N 29°34' W 090°32'3 6.6
2017-Apr-22 10:00N 29°35' W 090°36'3 6.4
2017-Apr-22 09:30N 29°36' W 090°39'3 5.7
2017-Apr-22 09:00N 29°37' W 090°42'3 5.0
2017-Apr-22 08:30N 29°34' W 090°43'3 5.1
2017-Apr-22 08:00N 29°33' W 090°45'3 6.7
2017-Apr-22 07:30N 29°32' W 090°49'4 7.2
2017-Apr-22 07:00N 29°33' W 090°53'3 6.7
2017-Apr-22 06:30N 29°34' W 090°57'50 5.0
2017-Apr-21 20:28N 29°51' W 091°51'3 6.0
2017-Apr-21 20:00N 29°51' W 091°54'3 6.4
2017-Apr-21 19:30N 29°50' W 091°58'3 6.5
2017-Apr-21 19:00N 29°49' W 092°02'3 6.7
2017-Apr-21 18:30N 29°48' W 092°05'3 6.8
2017-Apr-21 18:00N 29°47' W 092°09'3 6.0
2017-Apr-21 17:30N 29°47' W 092°12'2 3.4
2017-Apr-21 17:00N 29°48' W 092°14'3 6.5
2017-Apr-21 16:30N 29°49' W 092°18'3 6.2
2017-Apr-21 16:00N 29°51' W 092°21'3 6.3
2017-Apr-21 15:30N 29°53' W 092°23'3 6.8
2017-Apr-21 15:00N 29°54' W 092°27'30 6.3
2017-Apr-21 10:19N 29°56' W 093°01'2 6.3
2017-Apr-21 10:00N 29°56' W 093°04'3 6.3
2017-Apr-21 09:30N 29°56' W 093°07'3 5.8
2017-Apr-21 09:00N 29°57' W 093°10'3 6.4
2017-Apr-21 08:30N 29°59' W 093°13'3 5.6
2017-Apr-21 08:00N 30°02' W 093°15'3 5.5
2017-Apr-21 07:30N 30°04' W 093°16'2 3.7
2017-Apr-21 07:00N 30°05' W 093°18'1 2.9
2017-Apr-21 06:30N 30°06' W 093°19'3 5.1
2017-Apr-21 06:00N 30°04' W 093°21'3 6.2
2017-Apr-21 05:30N 30°04' W 093°25'3 6.8
2017-Apr-21 05:00N 30°04' W 093°29'4 6.9
2017-Apr-21 04:29N 30°04' W 093°33'9 3.0
2017-Apr-21 01:36N 30°04' W 093°43'1 5.0
2017-Apr-21 01:25N 30°03' W 093°43'2 6.0
2017-Apr-21 01:00N 30°04' W 093°40'3 6.2
2017-Apr-21 00:30N 30°04' W 093°37'3 6.2
2017-Apr-21 00:00N 30°04' W 093°33'3 6.3
2017-Apr-20 23:30N 30°04' W 093°29'3 6.0
2017-Apr-20 23:00N 30°04' W 093°26'3 6.2
2017-Apr-20 22:30N 30°04' W 093°22'3 5.2
2017-Apr-20 22:00N 30°05' W 093°20'3 5.5
2017-Apr-20 21:30N 30°08' W 093°20'3 5.4
2017-Apr-20 21:00N 30°10' W 093°19'3 5.6
2017-Apr-20 20:30N 30°12' W 093°17'1 2.6
2017-Apr-20 20:01N 30°13' W 093°16'0 0.1
2017-Apr-20 19:30N 30°13' W 093°16'0 0.0
2017-Apr-20 19:00N 30°13' W 093°16'0 0.0
2017-Apr-20 18:30N 30°13' W 093°16'0 0.0
2017-Apr-20 18:00N 30°13' W 093°16'0 0.0
2017-Apr-20 17:30N 30°13' W 093°16'0 0.0
2017-Apr-20 17:00N 30°13' W 093°16'0 0.0
2017-Apr-20 16:30N 30°13' W 093°16'0 0.0
2017-Apr-20 16:00N 30°13' W 093°16'0 0.0
2017-Apr-20 15:30N 30°13' W 093°16'0 0.0
2017-Apr-20 15:00N 30°13' W 093°16'0 0.0
2017-Apr-20 14:30N 30°13' W 093°16'0 0.0
2017-Apr-20 13:30N 30°13' W 093°16'0 0.0
2017-Apr-20 13:00N 30°13' W 093°16'0 0.0
2017-Apr-20 12:30N 30°13' W 093°16'0 0.0
2017-Apr-20 12:00N 30°13' W 093°16'0 0.0
2017-Apr-20 11:30N 30°13' W 093°16'0 0.0
2017-Apr-20 11:00N 30°13' W 093°16'0 0.0
2017-Apr-20 10:30N 30°13' W 093°16'0 0.0
2017-Apr-20 10:00N 30°13' W 093°16'0 0.0
2017-Apr-20 09:30N 30°13' W 093°16'0 0.0
2017-Apr-20 09:00N 30°13' W 093°16'0 0.0
2017-Apr-20 08:30N 30°13' W 093°16'0 0.0
2017-Apr-20 08:00N 30°13' W 093°16'0 0.0
2017-Apr-20 07:30N 30°13' W 093°16'0 0.0
2017-Apr-20 07:00N 30°13' W 093°16'0 0.0
2017-Apr-20 06:30N 30°13' W 093°16'0 0.0
2017-Apr-20 06:00N 30°13' W 093°16'0 0.0
2017-Apr-20 05:30N 30°13' W 093°16'0 0.0
2017-Apr-20 05:00N 30°13' W 093°16'0 0.0
2017-Apr-20 04:30N 30°13' W 093°16'0 0.0
2017-Apr-20 04:00N 30°13' W 093°16'0 0.0
2017-Apr-20 03:30N 30°13' W 093°16'0 0.0
2017-Apr-20 03:00N 30°13' W 093°16'0 0.0
2017-Apr-20 02:30N 30°13' W 093°16'0 0.0
2017-Apr-20 02:00N 30°13' W 093°16'0 0.0
2017-Apr-20 01:30N 30°13' W 093°16'0 0.0
2017-Apr-20 01:00N 30°13' W 093°16'0 0.0
2017-Apr-20 00:30N 30°13' W 093°16'0 0.0
2017-Apr-20 00:00N 30°13' W 093°16'0 0.0
2017-Apr-19 23:30N 30°13' W 093°16'0 0.0
2017-Apr-19 23:00N 30°13' W 093°16'0 0.0
2017-Apr-19 22:30N 30°13' W 093°16'0 0.1
2017-Apr-19 22:00N 30°13' W 093°16'0 0.0
2017-Apr-19 21:30N 30°13' W 093°16'0 0.0
2017-Apr-19 21:00N 30°13' W 093°16'0 0.1
2017-Apr-19 20:30N 30°13' W 093°16'0 0.0
2017-Apr-19 20:00N 30°13' W 093°16'0 0.0
2017-Apr-19 19:30N 30°13' W 093°16'0 0.0
2017-Apr-19 19:00N 30°13' W 093°16'1 1.0
2017-Apr-19 18:30N 30°14' W 093°16'0 0.5
2017-Apr-19 18:01N 30°14' W 093°15'0 0.0
2017-Apr-19 17:30N 30°14' W 093°15'0 0.0
2017-Apr-19 17:00N 30°14' W 093°15'0 0.0
2017-Apr-19 16:30N 30°14' W 093°15'0 0.0
2017-Apr-19 16:00N 30°14' W 093°15'0 0.0
2017-Apr-19 15:30N 30°14' W 093°15'0 0.0
2017-Apr-19 15:00N 30°14' W 093°15'0 0.0
2017-Apr-19 14:30N 30°14' W 093°15'0 0.0
2017-Apr-19 13:30N 30°14' W 093°15'0 0.0
2017-Apr-19 13:00N 30°14' W 093°15'0 0.0
2017-Apr-19 12:30N 30°14' W 093°15'0 0.0
2017-Apr-19 12:00N 30°14' W 093°15'0 0.0
2017-Apr-19 11:30N 30°14' W 093°15'0 0.0
2017-Apr-19 11:00N 30°14' W 093°15'0 0.0
2017-Apr-19 10:30N 30°14' W 093°15'0 0.0
2017-Apr-19 10:00N 30°14' W 093°15'0 0.0
2017-Apr-19 09:30N 30°14' W 093°15'0 0.0
2017-Apr-19 09:00N 30°14' W 093°15'0 0.0
2017-Apr-19 08:30N 30°14' W 093°15'0 0.0
2017-Apr-19 08:00N 30°14' W 093°15'0 0.0
2017-Apr-19 07:30N 30°14' W 093°15'0 0.0
2017-Apr-19 07:00N 30°14' W 093°15'0 0.0
2017-Apr-19 06:30N 30°14' W 093°15'0 0.0
2017-Apr-19 06:00N 30°14' W 093°15'0 0.0
2017-Apr-19 05:30N 30°14' W 093°15'0 0.0
2017-Apr-19 05:00N 30°14' W 093°15'0 0.0
2017-Apr-19 04:30N 30°14' W 093°15'0 0.0
2017-Apr-19 04:00N 30°14' W 093°15'0 0.0
2017-Apr-19 03:30N 30°14' W 093°15'0 0.0
2017-Apr-19 03:00N 30°14' W 093°15'0 0.0
2017-Apr-19 02:30N 30°14' W 093°15'0 0.0
2017-Apr-19 02:00N 30°14' W 093°15'0 0.0
2017-Apr-19 01:30N 30°14' W 093°15'0 0.0
2017-Apr-19 01:00N 30°14' W 093°15'0 0.0
2017-Apr-19 00:30N 30°14' W 093°15'0 0.0
2017-Apr-19 00:00N 30°14' W 093°15'0 0.0
2017-Apr-18 23:30N 30°14' W 093°15'0 0.0
2017-Apr-18 23:00N 30°14' W 093°15'0 0.0
2017-Apr-18 22:30N 30°14' W 093°15'0 0.0
2017-Apr-18 22:00N 30°14' W 093°15'0 0.0
2017-Apr-18 21:30N 30°14' W 093°15'0 0.0
2017-Apr-18 21:00N 30°14' W 093°15'0 0.0
2017-Apr-18 20:30N 30°14' W 093°15'0 0.0
2017-Apr-18 20:00N 30°14' W 093°15'0 0.0
2017-Apr-18 19:30N 30°14' W 093°15'0 0.0
2017-Apr-18 19:00N 30°14' W 093°15'0 0.0
2017-Apr-18 18:30N 30°14' W 093°15'0 0.0
2017-Apr-18 18:00N 30°14' W 093°15'0 0.0
2017-Apr-18 17:30N 30°14' W 093°15'0 0.0
2017-Apr-18 17:00N 30°14' W 093°15'0 0.0
2017-Apr-18 16:30N 30°14' W 093°15'0 0.2
2017-Apr-18 16:00N 30°14' W 093°15'1 1.2
2017-Apr-18 15:30N 30°13' W 093°16'0 0.0
2017-Apr-18 15:00N 30°13' W 093°16'0 0.0
2017-Apr-18 14:30N 30°13' W 093°16'0 0.0
2017-Apr-18 13:30N 30°13' W 093°16'0 0.0
2017-Apr-18 13:00N 30°13' W 093°16'0 0.0
2017-Apr-18 12:30N 30°13' W 093°16'0 0.0
2017-Apr-18 12:00N 30°13' W 093°16'0 0.0
2017-Apr-18 11:30N 30°13' W 093°16'0 0.0
2017-Apr-18 11:00N 30°13' W 093°16'0 0.0
2017-Apr-18 10:30N 30°13' W 093°16'0 0.0
2017-Apr-18 10:00N 30°13' W 093°16'0 0.0
2017-Apr-18 09:30N 30°13' W 093°16'0 0.0
2017-Apr-18 09:00N 30°13' W 093°16'0 0.0
2017-Apr-18 08:30N 30°13' W 093°16'0 0.0
2017-Apr-18 08:00N 30°13' W 093°16'0 0.0
2017-Apr-18 07:30N 30°13' W 093°16'0 0.0
2017-Apr-18 07:00N 30°13' W 093°16'0 0.0
2017-Apr-18 06:30N 30°13' W 093°16'0 0.0
2017-Apr-18 04:29N 30°13' W 093°16'0 0.0
2017-Apr-18 04:00N 30°13' W 093°16'0 0.0
2017-Apr-18 03:30N 30°13' W 093°16'0 0.0
2017-Apr-18 03:00N 30°13' W 093°16'0 0.0
2017-Apr-18 02:30N 30°13' W 093°16'0 0.0
2017-Apr-18 02:00N 30°13' W 093°16'0 0.0
2017-Apr-18 01:30N 30°13' W 093°16'0 0.0
2017-Apr-18 01:00N 30°13' W 093°16'0 0.0
2017-Apr-18 00:30N 30°13' W 093°16'0 0.0
2017-Apr-18 00:00N 30°13' W 093°16'0 0.0
2017-Apr-17 23:30N 30°13' W 093°16'0 0.0
2017-Apr-17 23:00N 30°13' W 093°16'0 0.0
2017-Apr-17 22:30N 30°13' W 093°16'0 0.0
2017-Apr-17 22:00N 30°13' W 093°16'0 0.0
2017-Apr-17 21:30N 30°13' W 093°16'0 0.0
2017-Apr-17 21:00N 30°13' W 093°16'0 0.2
2017-Apr-17 20:30N 30°13' W 093°16'0 0.1
2017-Apr-17 20:00N 30°14' W 093°16'0 0.0
2017-Apr-17 19:30N 30°14' W 093°16'0 0.0
2017-Apr-17 19:00N 30°14' W 093°16'0 0.0
2017-Apr-17 18:30N 30°14' W 093°16'0 0.0
2017-Apr-17 18:00N 30°14' W 093°16'0 0.0
2017-Apr-17 17:30N 30°14' W 093°16'0 0.0
2017-Apr-17 17:00N 30°14' W 093°16'0 0.0
2017-Apr-17 16:30N 30°14' W 093°16'0 0.0
2017-Apr-17 16:00N 30°14' W 093°16'0 0.0
2017-Apr-17 15:30N 30°14' W 093°16'0 0.0
2017-Apr-17 15:00N 30°13' W 093°16'0 0.0
2017-Apr-17 14:00N 30°14' W 093°16'0 0.0
2017-Apr-17 13:30N 30°14' W 093°16'0 0.0
2017-Apr-17 13:00N 30°14' W 093°16'0 0.0
2017-Apr-17 12:30N 30°14' W 093°16'0 0.0
2017-Apr-17 12:00N 30°14' W 093°16'0 0.0
2017-Apr-17 11:30N 30°14' W 093°16'0 0.0
2017-Apr-17 11:00N 30°13' W 093°16'0 0.0
2017-Apr-17 10:30N 30°13' W 093°16'0 0.0
2017-Apr-17 10:00N 30°13' W 093°16'0 0.0
2017-Apr-17 09:30N 30°13' W 093°16'0 0.0
2017-Apr-17 09:00N 30°13' W 093°16'0 0.0
2017-Apr-17 08:30N 30°13' W 093°16'0 0.0
2017-Apr-17 08:00N 30°13' W 093°16'0 0.0
2017-Apr-17 07:30N 30°13' W 093°16'0 0.0
2017-Apr-17 07:00N 30°13' W 093°16'0 0.0
2017-Apr-17 06:30N 30°14' W 093°16'0 0.0
2017-Apr-17 06:00N 30°14' W 093°16'0 0.0
2017-Apr-17 05:30N 30°14' W 093°16'0 0.0
2017-Apr-17 05:00N 30°14' W 093°16'0 0.0
2017-Apr-17 04:30N 30°14' W 093°16'0 0.0
2017-Apr-17 04:00N 30°14' W 093°16'0 0.0
2017-Apr-17 03:30N 30°14' W 093°16'0 0.0
2017-Apr-17 03:00N 30°14' W 093°16'0 0.0
2017-Apr-17 02:30N 30°14' W 093°16'0 0.0
2017-Apr-17 02:00N 30°14' W 093°16'0 0.0
2017-Apr-17 01:30N 30°14' W 093°16'0 0.0
2017-Apr-17 01:00N 30°14' W 093°16'0 0.0
2017-Apr-17 00:30N 30°14' W 093°16'0 0.0
2017-Apr-17 00:00N 30°14' W 093°16'0 0.0
2017-Apr-16 23:30N 30°14' W 093°16'0 0.0
2017-Apr-16 23:00N 30°14' W 093°16'0 0.0
2017-Apr-16 22:30N 30°14' W 093°16'0 0.0
2017-Apr-16 22:00N 30°14' W 093°16'0 0.0
2017-Apr-16 21:30N 30°14' W 093°16'0 0.0
2017-Apr-16 21:00N 30°14' W 093°16'0 0.0
2017-Apr-16 20:30N 30°14' W 093°16'0 0.0
2017-Apr-16 20:00N 30°14' W 093°16'0 0.0
2017-Apr-16 19:30N 30°14' W 093°16'0 0.0
2017-Apr-16 19:00N 30°14' W 093°16'0 0.0
2017-Apr-16 18:30N 30°14' W 093°16'0 0.0
2017-Apr-16 18:00N 30°14' W 093°16'0 0.0
2017-Apr-16 17:30N 30°14' W 093°16'0 0.0
2017-Apr-16 17:00N 30°14' W 093°16'0 0.0
2017-Apr-16 16:30N 30°14' W 093°16'0 0.0
2017-Apr-16 16:00N 30°14' W 093°16'0 0.0
2017-Apr-16 15:30N 30°14' W 093°16'0 0.0
2017-Apr-16 15:00N 30°14' W 093°16'0 0.0
2017-Apr-16 14:00N 30°14' W 093°16'0 0.0
2017-Apr-16 13:30N 30°13' W 093°16'0 0.0
2017-Apr-16 13:00N 30°14' W 093°16'0 0.0
2017-Apr-16 12:30N 30°14' W 093°16'0 0.0
2017-Apr-16 12:00N 30°13' W 093°16'0 0.5
2017-Apr-16 11:30N 30°13' W 093°16'0 0.6
2017-Apr-16 11:00N 30°13' W 093°16'0 0.5
2017-Apr-16 10:30N 30°13' W 093°16'1 2.9
2017-Apr-16 10:00N 30°12' W 093°17'3 5.1
2017-Apr-16 09:30N 30°10' W 093°19'2 4.7
2017-Apr-16 09:00N 30°08' W 093°20'2 5.0
2017-Apr-16 08:30N 30°06' W 093°20'2 4.0
2017-Apr-16 08:00N 30°04' W 093°21'2 3.3
2017-Apr-16 07:30N 30°04' W 093°23'3 5.2
2017-Apr-16 07:00N 30°04' W 093°26'3 5.2
2017-Apr-16 06:30N 30°04' W 093°29'3 5.1
2017-Apr-16 06:00N 30°04' W 093°32'  

Dump ship's entire track history